sensor_id;sensor_type;location;lat;lon;timestamp;P1;durP1;ratioP1;P2;durP2;ratioP2
5219;SDS011;2629;50.768;7.308;2022-09-30T00:02:02;7.80;;;5.30;;
5219;SDS011;2629;50.768;7.308;2022-09-30T00:04:31;7.87;;;4.60;;
5219;SDS011;2629;50.768;7.308;2022-09-30T00:07:00;7.80;;;5.00;;
5219;SDS011;2629;50.768;7.308;2022-09-30T00:09:29;11.43;;;4.37;;
5219;SDS011;2629;50.768;7.308;2022-09-30T00:11:58;7.20;;;4.83;;
5219;SDS011;2629;50.768;7.308;2022-09-30T00:14:27;12.40;;;5.57;;
5219;SDS011;2629;50.768;7.308;2022-09-30T00:16:55;10.27;;;5.50;;
5219;SDS011;2629;50.768;7.308;2022-09-30T00:19:25;8.83;;;5.47;;
5219;SDS011;2629;50.768;7.308;2022-09-30T00:21:53;9.20;;;5.43;;
5219;SDS011;2629;50.768;7.308;2022-09-30T00:24:22;7.77;;;5.23;;
5219;SDS011;2629;50.768;7.308;2022-09-30T00:26:52;8.83;;;4.50;;
5219;SDS011;2629;50.768;7.308;2022-09-30T00:29:20;14.10;;;4.73;;
5219;SDS011;2629;50.768;7.308;2022-09-30T00:31:49;19.37;;;5.03;;
5219;SDS011;2629;50.768;7.308;2022-09-30T00:34:17;7.80;;;4.93;;
5219;SDS011;2629;50.768;7.308;2022-09-30T00:36:47;11.43;;;5.73;;
5219;SDS011;2629;50.768;7.308;2022-09-30T00:39:16;12.40;;;4.87;;
5219;SDS011;2629;50.768;7.308;2022-09-30T00:41:46;9.60;;;6.37;;
5219;SDS011;2629;50.768;7.308;2022-09-30T00:47:22;11.27;;;6.83;;
5219;SDS011;2629;50.768;7.308;2022-09-30T00:49:54;9.53;;;6.67;;
5219;SDS011;2629;50.768;7.308;2022-09-30T00:52:25;9.17;;;5.03;;
5219;SDS011;2629;50.768;7.308;2022-09-30T00:54:54;7.43;;;4.50;;
5219;SDS011;2629;50.768;7.308;2022-09-30T00:57:23;10.70;;;5.80;;
5219;SDS011;2629;50.768;7.308;2022-09-30T00:59:52;9.80;;;5.53;;
5219;SDS011;2629;50.768;7.308;2022-09-30T01:02:22;8.33;;;5.60;;
5219;SDS011;2629;50.768;7.308;2022-09-30T01:04:51;10.73;;;5.77;;
5219;SDS011;2629;50.768;7.308;2022-09-30T01:07:20;7.67;;;5.17;;
5219;SDS011;2629;50.768;7.308;2022-09-30T01:09:50;7.00;;;5.50;;
5219;SDS011;2629;50.768;7.308;2022-09-30T01:12:19;8.97;;;5.23;;
5219;SDS011;2629;50.768;7.308;2022-09-30T01:14:50;9.70;;;5.83;;
5219;SDS011;2629;50.768;7.308;2022-09-30T01:28:59;7.93;;;4.33;;
5219;SDS011;2629;50.768;7.308;2022-09-30T01:31:41;10.93;;;6.07;;
5219;SDS011;2629;50.768;7.308;2022-09-30T01:34:16;14.70;;;6.17;;
5219;SDS011;2629;50.768;7.308;2022-09-30T01:36:52;10.37;;;5.20;;
5219;SDS011;2629;50.768;7.308;2022-09-30T01:39:28;9.20;;;5.60;;
5219;SDS011;2629;50.768;7.308;2022-09-30T01:41:59;9.63;;;5.40;;
5219;SDS011;2629;50.768;7.308;2022-09-30T01:44:32;13.83;;;8.23;;
5219;SDS011;2629;50.768;7.308;2022-09-30T01:47:06;11.90;;;6.07;;
5219;SDS011;2629;50.768;7.308;2022-09-30T01:49:37;11.17;;;5.63;;
5219;SDS011;2629;50.768;7.308;2022-09-30T01:52:07;8.00;;;5.30;;
5219;SDS011;2629;50.768;7.308;2022-09-30T01:54:38;8.43;;;4.47;;
5219;SDS011;2629;50.768;7.308;2022-09-30T01:57:10;9.73;;;5.70;;
5219;SDS011;2629;50.768;7.308;2022-09-30T01:59:40;10.83;;;5.63;;
5219;SDS011;2629;50.768;7.308;2022-09-30T02:02:11;10.13;;;6.00;;
5219;SDS011;2629;50.768;7.308;2022-09-30T02:04:41;8.53;;;5.17;;
5219;SDS011;2629;50.768;7.308;2022-09-30T02:07:12;7.53;;;5.67;;
5219;SDS011;2629;50.768;7.308;2022-09-30T02:09:44;9.83;;;5.77;;
5219;SDS011;2629;50.768;7.308;2022-09-30T02:12:15;6.07;;;4.73;;
5219;SDS011;2629;50.768;7.308;2022-09-30T02:14:46;9.30;;;6.53;;
5219;SDS011;2629;50.768;7.308;2022-09-30T02:17:19;9.30;;;5.40;;
5219;SDS011;2629;50.768;7.308;2022-09-30T02:19:49;9.60;;;6.10;;
5219;SDS011;2629;50.768;7.308;2022-09-30T02:22:19;8.93;;;5.73;;
5219;SDS011;2629;50.768;7.308;2022-09-30T02:24:49;8.43;;;6.47;;
5219;SDS011;2629;50.768;7.308;2022-09-30T02:27:20;7.07;;;5.77;;
5219;SDS011;2629;50.768;7.308;2022-09-30T02:29:50;10.47;;;5.53;;
5219;SDS011;2629;50.768;7.308;2022-09-30T02:32:21;8.20;;;5.83;;
5219;SDS011;2629;50.768;7.308;2022-09-30T02:34:52;8.40;;;6.10;;
5219;SDS011;2629;50.768;7.308;2022-09-30T02:37:23;19.10;;;7.53;;
5219;SDS011;2629;50.768;7.308;2022-09-30T02:39:55;8.27;;;5.33;;
5219;SDS011;2629;50.768;7.308;2022-09-30T02:42:25;10.00;;;5.70;;
5219;SDS011;2629;50.768;7.308;2022-09-30T02:44:55;8.73;;;6.20;;
5219;SDS011;2629;50.768;7.308;2022-09-30T02:47:27;10.23;;;6.23;;
5219;SDS011;2629;50.768;7.308;2022-09-30T02:49:59;10.50;;;5.73;;
5219;SDS011;2629;50.768;7.308;2022-09-30T02:52:32;9.77;;;6.40;;
5219;SDS011;2629;50.768;7.308;2022-09-30T02:55:07;9.07;;;5.83;;
5219;SDS011;2629;50.768;7.308;2022-09-30T02:57:41;10.97;;;6.17;;
5219;SDS011;2629;50.768;7.308;2022-09-30T03:00:14;9.03;;;5.60;;
5219;SDS011;2629;50.768;7.308;2022-09-30T03:02:43;15.53;;;6.27;;
5219;SDS011;2629;50.768;7.308;2022-09-30T03:05:12;8.13;;;4.97;;
5219;SDS011;2629;50.768;7.308;2022-09-30T03:07:42;9.83;;;5.90;;
5219;SDS011;2629;50.768;7.308;2022-09-30T03:10:11;18.67;;;6.93;;
5219;SDS011;2629;50.768;7.308;2022-09-30T03:12:42;11.47;;;6.37;;
5219;SDS011;2629;50.768;7.308;2022-09-30T03:15:18;12.10;;;6.53;;
5219;SDS011;2629;50.768;7.308;2022-09-30T03:18:05;14.00;;;5.97;;
5219;SDS011;2629;50.768;7.308;2022-09-30T03:20:38;11.60;;;6.00;;
5219;SDS011;2629;50.768;7.308;2022-09-30T03:23:15;9.43;;;5.50;;
5219;SDS011;2629;50.768;7.308;2022-09-30T03:25:48;11.70;;;5.97;;
5219;SDS011;2629;50.768;7.308;2022-09-30T03:28:23;10.40;;;5.73;;
5219;SDS011;2629;50.768;7.308;2022-09-30T03:30:56;9.57;;;6.00;;
5219;SDS011;2629;50.768;7.308;2022-09-30T03:33:30;14.87;;;5.90;;
5219;SDS011;2629;50.768;7.308;2022-09-30T03:36:00;12.27;;;6.60;;
5219;SDS011;2629;50.768;7.308;2022-09-30T03:38:35;10.30;;;5.80;;
5219;SDS011;2629;50.768;7.308;2022-09-30T03:41:05;7.93;;;6.00;;
5219;SDS011;2629;50.768;7.308;2022-09-30T03:43:35;11.50;;;7.17;;
5219;SDS011;2629;50.768;7.308;2022-09-30T03:46:05;9.63;;;6.30;;
5219;SDS011;2629;50.768;7.308;2022-09-30T03:48:35;10.47;;;6.07;;
5219;SDS011;2629;50.768;7.308;2022-09-30T03:51:05;11.80;;;6.40;;
5219;SDS011;2629;50.768;7.308;2022-09-30T03:53:36;10.73;;;6.40;;
5219;SDS011;2629;50.768;7.308;2022-09-30T03:56:05;11.43;;;6.83;;
5219;SDS011;2629;50.768;7.308;2022-09-30T03:58:33;8.27;;;5.57;;
5219;SDS011;2629;50.768;7.308;2022-09-30T04:01:04;9.57;;;6.20;;
5219;SDS011;2629;50.768;7.308;2022-09-30T04:03:32;9.57;;;5.67;;
5219;SDS011;2629;50.768;7.308;2022-09-30T04:06:02;9.90;;;6.87;;
5219;SDS011;2629;50.768;7.308;2022-09-30T04:08:30;11.20;;;5.93;;
5219;SDS011;2629;50.768;7.308;2022-09-30T04:10:59;9.40;;;6.17;;
5219;SDS011;2629;50.768;7.308;2022-09-30T04:13:27;8.97;;;5.90;;
5219;SDS011;2629;50.768;7.308;2022-09-30T04:15:56;12.57;;;5.87;;
5219;SDS011;2629;50.768;7.308;2022-09-30T04:18:25;8.67;;;6.10;;
5219;SDS011;2629;50.768;7.308;2022-09-30T04:20:53;8.57;;;6.10;;
5219;SDS011;2629;50.768;7.308;2022-09-30T04:23:23;8.13;;;5.70;;
5219;SDS011;2629;50.768;7.308;2022-09-30T04:25:51;9.93;;;6.77;;
5219;SDS011;2629;50.768;7.308;2022-09-30T04:28:20;11.50;;;5.80;;
5219;SDS011;2629;50.768;7.308;2022-09-30T04:30:48;10.10;;;5.87;;
5219;SDS011;2629;50.768;7.308;2022-09-30T04:33:16;9.73;;;6.00;;
5219;SDS011;2629;50.768;7.308;2022-09-30T04:35:45;8.17;;;5.87;;
5219;SDS011;2629;50.768;7.308;2022-09-30T04:38:13;9.60;;;6.30;;
5219;SDS011;2629;50.768;7.308;2022-09-30T04:40:42;10.23;;;6.77;;
5219;SDS011;2629;50.768;7.308;2022-09-30T04:43:11;8.30;;;5.20;;
5219;SDS011;2629;50.768;7.308;2022-09-30T04:45:41;11.10;;;5.97;;
5219;SDS011;2629;50.768;7.308;2022-09-30T04:48:10;12.33;;;6.70;;
5219;SDS011;2629;50.768;7.308;2022-09-30T04:50:38;9.57;;;5.83;;
5219;SDS011;2629;50.768;7.308;2022-09-30T04:53:07;12.53;;;6.43;;
5219;SDS011;2629;50.768;7.308;2022-09-30T04:55:35;8.57;;;5.90;;
5219;SDS011;2629;50.768;7.308;2022-09-30T04:58:05;12.33;;;6.17;;
5219;SDS011;2629;50.768;7.308;2022-09-30T05:00:33;8.57;;;6.17;;
5219;SDS011;2629;50.768;7.308;2022-09-30T05:03:03;8.47;;;5.93;;
5219;SDS011;2629;50.768;7.308;2022-09-30T05:05:32;9.63;;;5.90;;
5219;SDS011;2629;50.768;7.308;2022-09-30T05:08:01;10.33;;;6.10;;
5219;SDS011;2629;50.768;7.308;2022-09-30T05:10:29;11.33;;;6.17;;
5219;SDS011;2629;50.768;7.308;2022-09-30T05:12:57;12.70;;;6.67;;
5219;SDS011;2629;50.768;7.308;2022-09-30T05:15:27;9.23;;;6.23;;
5219;SDS011;2629;50.768;7.308;2022-09-30T05:17:55;9.80;;;5.87;;
5219;SDS011;2629;50.768;7.308;2022-09-30T05:20:24;17.63;;;5.50;;
5219;SDS011;2629;50.768;7.308;2022-09-30T05:22:52;9.50;;;6.50;;
5219;SDS011;2629;50.768;7.308;2022-09-30T05:25:21;8.33;;;5.93;;
5219;SDS011;2629;50.768;7.308;2022-09-30T05:27:50;10.47;;;5.67;;
5219;SDS011;2629;50.768;7.308;2022-09-30T05:30:18;8.57;;;6.00;;
5219;SDS011;2629;50.768;7.308;2022-09-30T05:32:48;9.20;;;5.90;;
5219;SDS011;2629;50.768;7.308;2022-09-30T05:35:16;9.03;;;6.03;;
5219;SDS011;2629;50.768;7.308;2022-09-30T05:37:45;8.40;;;5.90;;
5219;SDS011;2629;50.768;7.308;2022-09-30T05:40:13;9.80;;;6.13;;
5219;SDS011;2629;50.768;7.308;2022-09-30T05:42:42;8.07;;;5.83;;
5219;SDS011;2629;50.768;7.308;2022-09-30T05:45:12;9.10;;;5.40;;
5219;SDS011;2629;50.768;7.308;2022-09-30T05:47:41;8.87;;;5.43;;
5219;SDS011;2629;50.768;7.308;2022-09-30T05:50:11;8.50;;;6.00;;
5219;SDS011;2629;50.768;7.308;2022-09-30T05:52:39;8.70;;;5.43;;
5219;SDS011;2629;50.768;7.308;2022-09-30T05:55:08;8.80;;;5.37;;
5219;SDS011;2629;50.768;7.308;2022-09-30T05:57:36;9.80;;;5.30;;
5219;SDS011;2629;50.768;7.308;2022-09-30T06:00:05;9.73;;;6.00;;
5219;SDS011;2629;50.768;7.308;2022-09-30T06:02:37;10.97;;;6.20;;
5219;SDS011;2629;50.768;7.308;2022-09-30T06:05:07;13.07;;;6.83;;
5219;SDS011;2629;50.768;7.308;2022-09-30T06:07:37;9.97;;;6.40;;
5219;SDS011;2629;50.768;7.308;2022-09-30T06:10:07;9.20;;;6.60;;
5219;SDS011;2629;50.768;7.308;2022-09-30T06:12:38;9.77;;;6.40;;
5219;SDS011;2629;50.768;7.308;2022-09-30T06:15:07;10.57;;;6.50;;
5219;SDS011;2629;50.768;7.308;2022-09-30T06:17:35;13.10;;;7.53;;
5219;SDS011;2629;50.768;7.308;2022-09-30T06:20:04;11.50;;;5.83;;
5219;SDS011;2629;50.768;7.308;2022-09-30T06:22:33;11.20;;;6.50;;
5219;SDS011;2629;50.768;7.308;2022-09-30T06:25:04;12.23;;;6.17;;
5219;SDS011;2629;50.768;7.308;2022-09-30T06:27:33;11.23;;;6.80;;
5219;SDS011;2629;50.768;7.308;2022-09-30T06:30:02;9.57;;;6.83;;
5219;SDS011;2629;50.768;7.308;2022-09-30T06:32:31;9.03;;;6.37;;
5219;SDS011;2629;50.768;7.308;2022-09-30T06:35:00;9.70;;;6.40;;
5219;SDS011;2629;50.768;7.308;2022-09-30T06:37:29;8.33;;;4.50;;
5219;SDS011;2629;50.768;7.308;2022-09-30T06:39:58;10.63;;;6.80;;
5219;SDS011;2629;50.768;7.308;2022-09-30T06:42:28;10.20;;;6.37;;
5219;SDS011;2629;50.768;7.308;2022-09-30T06:44:56;15.10;;;6.23;;
5219;SDS011;2629;50.768;7.308;2022-09-30T06:47:25;9.77;;;5.67;;
5219;SDS011;2629;50.768;7.308;2022-09-30T06:49:53;10.47;;;6.63;;
5219;SDS011;2629;50.768;7.308;2022-09-30T06:52:24;8.20;;;6.10;;
5219;SDS011;2629;50.768;7.308;2022-09-30T06:54:53;11.00;;;6.70;;
5219;SDS011;2629;50.768;7.308;2022-09-30T06:57:22;11.67;;;7.00;;
5219;SDS011;2629;50.768;7.308;2022-09-30T06:59:54;10.70;;;6.47;;
5219;SDS011;2629;50.768;7.308;2022-09-30T07:02:23;9.30;;;6.17;;
5219;SDS011;2629;50.768;7.308;2022-09-30T07:04:51;9.33;;;5.83;;
5219;SDS011;2629;50.768;7.308;2022-09-30T07:07:20;9.40;;;5.90;;
5219;SDS011;2629;50.768;7.308;2022-09-30T07:09:48;11.57;;;7.13;;
5219;SDS011;2629;50.768;7.308;2022-09-30T07:12:23;12.03;;;6.53;;
5219;SDS011;2629;50.768;7.308;2022-09-30T07:14:52;9.53;;;6.40;;
5219;SDS011;2629;50.768;7.308;2022-09-30T07:17:22;13.30;;;6.93;;
5219;SDS011;2629;50.768;7.308;2022-09-30T07:19:51;10.97;;;6.43;;
5219;SDS011;2629;50.768;7.308;2022-09-30T07:22:20;12.37;;;6.60;;
5219;SDS011;2629;50.768;7.308;2022-09-30T07:24:55;9.80;;;6.13;;
5219;SDS011;2629;50.768;7.308;2022-09-30T07:27:24;9.50;;;6.30;;
5219;SDS011;2629;50.768;7.308;2022-09-30T07:29:53;10.40;;;6.63;;
5219;SDS011;2629;50.768;7.308;2022-09-30T07:32:38;10.93;;;6.00;;
5219;SDS011;2629;50.768;7.308;2022-09-30T07:35:07;15.40;;;7.03;;
5219;SDS011;2629;50.768;7.308;2022-09-30T07:37:35;11.50;;;6.47;;
5219;SDS011;2629;50.768;7.308;2022-09-30T07:40:05;9.37;;;6.00;;
5219;SDS011;2629;50.768;7.308;2022-09-30T07:42:35;10.73;;;6.77;;
5219;SDS011;2629;50.768;7.308;2022-09-30T07:45:05;10.00;;;6.50;;
5219;SDS011;2629;50.768;7.308;2022-09-30T07:47:33;8.37;;;5.83;;
5219;SDS011;2629;50.768;7.308;2022-09-30T07:50:04;7.97;;;5.33;;
5219;SDS011;2629;50.768;7.308;2022-09-30T07:52:38;12.20;;;6.23;;
5219;SDS011;2629;50.768;7.308;2022-09-30T07:55:06;10.70;;;7.10;;
5219;SDS011;2629;50.768;7.308;2022-09-30T07:57:35;10.80;;;7.30;;
5219;SDS011;2629;50.768;7.308;2022-09-30T08:00:04;8.70;;;6.20;;
5219;SDS011;2629;50.768;7.308;2022-09-30T08:02:53;10.23;;;6.30;;
5219;SDS011;2629;50.768;7.308;2022-09-30T08:05:23;13.40;;;6.83;;
5219;SDS011;2629;50.768;7.308;2022-09-30T08:07:52;11.73;;;6.57;;
5219;SDS011;2629;50.768;7.308;2022-09-30T08:10:20;9.37;;;6.10;;
5219;SDS011;2629;50.768;7.308;2022-09-30T08:12:49;8.63;;;6.20;;
5219;SDS011;2629;50.768;7.308;2022-09-30T08:15:23;9.93;;;6.53;;
5219;SDS011;2629;50.768;7.308;2022-09-30T08:17:51;9.33;;;5.93;;
5219;SDS011;2629;50.768;7.308;2022-09-30T08:20:20;10.10;;;6.77;;
5219;SDS011;2629;50.768;7.308;2022-09-30T08:22:52;9.57;;;6.43;;
5219;SDS011;2629;50.768;7.308;2022-09-30T08:25:21;9.23;;;5.50;;
5219;SDS011;2629;50.768;7.308;2022-09-30T08:27:49;10.07;;;6.97;;
5219;SDS011;2629;50.768;7.308;2022-09-30T08:30:18;9.20;;;6.10;;
5219;SDS011;2629;50.768;7.308;2022-09-30T08:32:47;10.10;;;6.67;;
5219;SDS011;2629;50.768;7.308;2022-09-30T08:35:15;10.80;;;6.50;;
5219;SDS011;2629;50.768;7.308;2022-09-30T08:37:44;11.40;;;6.93;;
5219;SDS011;2629;50.768;7.308;2022-09-30T08:40:18;9.93;;;6.27;;
5219;SDS011;2629;50.768;7.308;2022-09-30T08:42:51;9.80;;;6.00;;
5219;SDS011;2629;50.768;7.308;2022-09-30T08:45:27;9.73;;;6.37;;
5219;SDS011;2629;50.768;7.308;2022-09-30T08:48:00;9.93;;;6.20;;
5219;SDS011;2629;50.768;7.308;2022-09-30T08:50:32;8.27;;;5.20;;
5219;SDS011;2629;50.768;7.308;2022-09-30T08:53:02;8.07;;;5.83;;
5219;SDS011;2629;50.768;7.308;2022-09-30T08:55:34;9.50;;;6.73;;
5219;SDS011;2629;50.768;7.308;2022-09-30T08:58:06;9.10;;;6.10;;
5219;SDS011;2629;50.768;7.308;2022-09-30T09:00:39;11.07;;;6.53;;
5219;SDS011;2629;50.768;7.308;2022-09-30T09:03:08;8.53;;;6.33;;
5219;SDS011;2629;50.768;7.308;2022-09-30T09:05:40;6.80;;;5.20;;
5219;SDS011;2629;50.768;7.308;2022-09-30T09:08:20;9.10;;;5.73;;
5219;SDS011;2629;50.768;7.308;2022-09-30T09:10:54;15.83;;;5.53;;
5219;SDS011;2629;50.768;7.308;2022-09-30T09:13:31;7.07;;;5.90;;
5219;SDS011;2629;50.768;7.308;2022-09-30T09:16:04;7.87;;;5.70;;
5219;SDS011;2629;50.768;7.308;2022-09-30T09:18:42;8.10;;;6.67;;
5219;SDS011;2629;50.768;7.308;2022-09-30T09:21:16;7.77;;;4.70;;
5219;SDS011;2629;50.768;7.308;2022-09-30T09:23:47;6.53;;;5.33;;
5219;SDS011;2629;50.768;7.308;2022-09-30T09:26:17;8.50;;;5.10;;
5219;SDS011;2629;50.768;7.308;2022-09-30T09:28:50;8.40;;;5.03;;
5219;SDS011;2629;50.768;7.308;2022-09-30T09:31:24;8.50;;;4.77;;
5219;SDS011;2629;50.768;7.308;2022-09-30T09:33:54;5.70;;;4.47;;
5219;SDS011;2629;50.768;7.308;2022-09-30T09:36:27;6.80;;;4.73;;
5219;SDS011;2629;50.768;7.308;2022-09-30T09:39:02;9.50;;;5.30;;
5219;SDS011;2629;50.768;7.308;2022-09-30T09:41:38;6.67;;;4.10;;
5219;SDS011;2629;50.768;7.308;2022-09-30T09:44:10;6.37;;;4.67;;
5219;SDS011;2629;50.768;7.308;2022-09-30T09:46:43;6.40;;;4.13;;
5219;SDS011;2629;50.768;7.308;2022-09-30T09:52:02;5.90;;;4.60;;
5219;SDS011;2629;50.768;7.308;2022-09-30T09:54:33;5.37;;;4.40;;
5219;SDS011;2629;50.768;7.308;2022-09-30T09:57:08;8.03;;;4.97;;
5219;SDS011;2629;50.768;7.308;2022-09-30T09:59:37;10.40;;;4.30;;
5219;SDS011;2629;50.768;7.308;2022-09-30T10:02:20;5.00;;;3.57;;
5219;SDS011;2629;50.768;7.308;2022-09-30T10:04:49;6.90;;;3.70;;
5219;SDS011;2629;50.768;7.308;2022-09-30T10:07:26;5.00;;;3.83;;
5219;SDS011;2629;50.768;7.308;2022-09-30T10:10:05;5.30;;;3.60;;
5219;SDS011;2629;50.768;7.308;2022-09-30T10:12:35;8.60;;;3.50;;
5219;SDS011;2629;50.768;7.308;2022-09-30T10:15:13;6.07;;;3.60;;
5219;SDS011;2629;50.768;7.308;2022-09-30T10:17:42;4.97;;;3.30;;
5219;SDS011;2629;50.768;7.308;2022-09-30T10:20:20;4.80;;;2.93;;
5219;SDS011;2629;50.768;7.308;2022-09-30T10:22:50;5.60;;;3.03;;
5219;SDS011;2629;50.768;7.308;2022-09-30T10:25:27;4.50;;;3.13;;
5219;SDS011;2629;50.768;7.308;2022-09-30T10:27:58;3.83;;;2.83;;
5219;SDS011;2629;50.768;7.308;2022-09-30T10:33:18;6.13;;;2.50;;
5219;SDS011;2629;50.768;7.308;2022-09-30T10:35:49;5.32;;;2.40;;
5219;SDS011;2629;50.768;7.308;2022-09-30T10:38:19;5.97;;;2.30;;
5219;SDS011;2629;50.768;7.308;2022-09-30T10:40:48;3.80;;;2.10;;
5219;SDS011;2629;50.768;7.308;2022-09-30T10:43:23;3.73;;;1.10;;
5219;SDS011;2629;50.768;7.308;2022-09-30T10:45:52;3.67;;;1.23;;
5219;SDS011;2629;50.768;7.308;2022-09-30T10:48:41;3.30;;;1.40;;
5219;SDS011;2629;50.768;7.308;2022-09-30T10:51:20;2.30;;;1.10;;
5219;SDS011;2629;50.768;7.308;2022-09-30T10:53:50;2.67;;;1.00;;
5219;SDS011;2629;50.768;7.308;2022-09-30T10:56:33;4.73;;;1.10;;
5219;SDS011;2629;50.768;7.308;2022-09-30T10:59:05;6.97;;;1.17;;
5219;SDS011;2629;50.768;7.308;2022-09-30T11:01:40;3.10;;;1.27;;
5219;SDS011;2629;50.768;7.308;2022-09-30T11:04:13;3.30;;;0.80;;
5219;SDS011;2629;50.768;7.308;2022-09-30T11:06:44;2.93;;;1.10;;
5219;SDS011;2629;50.768;7.308;2022-09-30T11:09:16;2.83;;;1.10;;
5219;SDS011;2629;50.768;7.308;2022-09-30T11:11:48;2.57;;;0.80;;
5219;SDS011;2629;50.768;7.308;2022-09-30T11:14:23;2.27;;;0.80;;
5219;SDS011;2629;50.768;7.308;2022-09-30T11:16:59;2.23;;;0.80;;
5219;SDS011;2629;50.768;7.308;2022-09-30T11:19:30;3.87;;;0.70;;
5219;SDS011;2629;50.768;7.308;2022-09-30T11:22:02;2.90;;;0.70;;
5219;SDS011;2629;50.768;7.308;2022-09-30T11:24:38;3.07;;;0.93;;
5219;SDS011;2629;50.768;7.308;2022-09-30T11:27:09;4.43;;;1.10;;
5219;SDS011;2629;50.768;7.308;2022-09-30T11:29:44;2.13;;;0.93;;
5219;SDS011;2629;50.768;7.308;2022-09-30T11:32:18;2.37;;;0.83;;
5219;SDS011;2629;50.768;7.308;2022-09-30T11:34:50;3.13;;;1.30;;
5219;SDS011;2629;50.768;7.308;2022-09-30T11:37:23;2.70;;;0.97;;
5219;SDS011;2629;50.768;7.308;2022-09-30T11:40:07;2.00;;;0.73;;
5219;SDS011;2629;50.768;7.308;2022-09-30T11:42:43;2.30;;;0.90;;
5219;SDS011;2629;50.768;7.308;2022-09-30T11:45:20;2.33;;;0.97;;
5219;SDS011;2629;50.768;7.308;2022-09-30T11:48:03;3.77;;;0.90;;
5219;SDS011;2629;50.768;7.308;2022-09-30T11:50:42;3.75;;;0.95;;
5219;SDS011;2629;50.768;7.308;2022-09-30T11:53:15;2.73;;;0.90;;
5219;SDS011;2629;50.768;7.308;2022-09-30T11:55:53;3.85;;;1.00;;
5219;SDS011;2629;50.768;7.308;2022-09-30T11:58:25;3.22;;;0.80;;
5219;SDS011;2629;50.768;7.308;2022-09-30T12:01:19;3.30;;;0.90;;
5219;SDS011;2629;50.768;7.308;2022-09-30T12:03:52;3.38;;;0.95;;
5219;SDS011;2629;50.768;7.308;2022-09-30T12:06:24;4.28;;;0.95;;
5219;SDS011;2629;50.768;7.308;2022-09-30T12:08:55;3.50;;;1.00;;
5219;SDS011;2629;50.768;7.308;2022-09-30T12:11:28;3.80;;;0.90;;
5219;SDS011;2629;50.768;7.308;2022-09-30T12:13:58;2.60;;;0.90;;
5219;SDS011;2629;50.768;7.308;2022-09-30T12:16:30;2.30;;;0.90;;
5219;SDS011;2629;50.768;7.308;2022-09-30T12:19:02;2.20;;;0.80;;
5219;SDS011;2629;50.768;7.308;2022-09-30T12:21:32;2.10;;;0.98;;
5219;SDS011;2629;50.768;7.308;2022-09-30T12:24:05;3.50;;;1.00;;
5219;SDS011;2629;50.768;7.308;2022-09-30T12:26:37;2.73;;;1.00;;
5219;SDS011;2629;50.768;7.308;2022-09-30T12:29:07;2.60;;;1.10;;
5219;SDS011;2629;50.768;7.308;2022-09-30T12:32:03;3.30;;;1.10;;
5219;SDS011;2629;50.768;7.308;2022-09-30T12:34:40;3.70;;;0.90;;
5219;SDS011;2629;50.768;7.308;2022-09-30T12:37:14;2.73;;;0.90;;
5219;SDS011;2629;50.768;7.308;2022-09-30T12:39:55;3.83;;;1.00;;
5219;SDS011;2629;50.768;7.308;2022-09-30T12:42:29;2.55;;;1.00;;
5219;SDS011;2629;50.768;7.308;2022-09-30T12:45:07;3.17;;;0.90;;
5219;SDS011;2629;50.768;7.308;2022-09-30T12:47:44;2.37;;;1.00;;
5219;SDS011;2629;50.768;7.308;2022-09-30T12:50:16;3.10;;;1.20;;
5219;SDS011;2629;50.768;7.308;2022-09-30T12:52:45;2.65;;;1.00;;
5219;SDS011;2629;50.768;7.308;2022-09-30T12:55:19;5.97;;;1.00;;
5219;SDS011;2629;50.768;7.308;2022-09-30T12:57:48;3.47;;;1.02;;
5219;SDS011;2629;50.768;7.308;2022-09-30T13:00:18;5.00;;;1.00;;
5219;SDS011;2629;50.768;7.308;2022-09-30T13:02:52;2.80;;;0.90;;
5219;SDS011;2629;50.768;7.308;2022-09-30T13:08:19;4.13;;;1.20;;
5219;SDS011;2629;50.768;7.308;2022-09-30T13:10:55;3.20;;;1.02;;
5219;SDS011;2629;50.768;7.308;2022-09-30T13:13:25;3.58;;;1.15;;
5219;SDS011;2629;50.768;7.308;2022-09-30T13:15:56;2.30;;;1.03;;
5219;SDS011;2629;50.768;7.308;2022-09-30T13:21:32;2.80;;;1.10;;
5219;SDS011;2629;50.768;7.308;2022-09-30T13:24:01;4.57;;;1.00;;
5219;SDS011;2629;50.768;7.308;2022-09-30T13:26:32;4.00;;;1.00;;
5219;SDS011;2629;50.768;7.308;2022-09-30T13:34:48;3.40;;;0.90;;
5219;SDS011;2629;50.768;7.308;2022-09-30T13:37:33;2.53;;;0.90;;
5219;SDS011;2629;50.768;7.308;2022-09-30T13:40:02;4.30;;;1.10;;
5219;SDS011;2629;50.768;7.308;2022-09-30T13:42:34;2.60;;;0.93;;
5219;SDS011;2629;50.768;7.308;2022-09-30T13:45:08;2.60;;;0.90;;
5219;SDS011;2629;50.768;7.308;2022-09-30T13:47:42;5.05;;;0.95;;
5219;SDS011;2629;50.768;7.308;2022-09-30T13:50:12;3.03;;;1.07;;
5219;SDS011;2629;50.768;7.308;2022-09-30T13:52:44;2.57;;;0.90;;
5219;SDS011;2629;50.768;7.308;2022-09-30T13:55:16;2.20;;;0.70;;
5219;SDS011;2629;50.768;7.308;2022-09-30T13:57:48;2.80;;;1.00;;
5219;SDS011;2629;50.768;7.308;2022-09-30T14:00:20;2.70;;;0.97;;
5219;SDS011;2629;50.768;7.308;2022-09-30T14:05:47;2.60;;;1.10;;
5219;SDS011;2629;50.768;7.308;2022-09-30T14:08:30;3.13;;;1.50;;
5219;SDS011;2629;50.768;7.308;2022-09-30T14:11:12;1.90;;;0.70;;
5219;SDS011;2629;50.768;7.308;2022-09-30T14:13:45;4.00;;;0.90;;
5219;SDS011;2629;50.768;7.308;2022-09-30T14:16:24;2.30;;;1.07;;
5219;SDS011;2629;50.768;7.308;2022-09-30T14:19:04;2.20;;;0.80;;
5219;SDS011;2629;50.768;7.308;2022-09-30T14:21:37;2.50;;;1.00;;
5219;SDS011;2629;50.768;7.308;2022-09-30T14:29:08;3.03;;;1.00;;
5219;SDS011;2629;50.768;7.308;2022-09-30T14:31:41;3.67;;;0.90;;
5219;SDS011;2629;50.768;7.308;2022-09-30T17:20:16;6.33;;;1.20;;
5219;SDS011;2629;50.768;7.308;2022-09-30T17:22:44;4.72;;;1.60;;
5219;SDS011;2629;50.768;7.308;2022-09-30T17:25:13;3.80;;;1.80;;
5219;SDS011;2629;50.768;7.308;2022-09-30T17:27:42;4.38;;;1.90;;
5219;SDS011;2629;50.768;7.308;2022-09-30T17:30:12;5.53;;;2.30;;
5219;SDS011;2629;50.768;7.308;2022-09-30T17:32:41;7.00;;;3.90;;
5219;SDS011;2629;50.768;7.308;2022-09-30T17:35:10;9.43;;;5.00;;
5219;SDS011;2629;50.768;7.308;2022-09-30T17:37:40;8.27;;;4.90;;
5219;SDS011;2629;50.768;7.308;2022-09-30T17:40:12;6.87;;;3.60;;
5219;SDS011;2629;50.768;7.308;2022-09-30T17:42:58;7.27;;;3.70;;
5219;SDS011;2629;50.768;7.308;2022-09-30T17:45:40;6.60;;;4.00;;
5219;SDS011;2629;50.768;7.308;2022-09-30T17:48:09;8.70;;;4.90;;
5219;SDS011;2629;50.768;7.308;2022-09-30T17:50:39;11.40;;;4.50;;
5219;SDS011;2629;50.768;7.308;2022-09-30T17:53:11;7.00;;;3.67;;
5219;SDS011;2629;50.768;7.308;2022-09-30T17:55:42;8.20;;;3.77;;
5219;SDS011;2629;50.768;7.308;2022-09-30T17:58:12;8.77;;;3.70;;
5219;SDS011;2629;50.768;7.308;2022-09-30T18:00:41;7.90;;;3.20;;
5219;SDS011;2629;50.768;7.308;2022-09-30T18:03:10;6.17;;;3.00;;
5219;SDS011;2629;50.768;7.308;2022-09-30T18:05:39;7.33;;;3.37;;
5219;SDS011;2629;50.768;7.308;2022-09-30T18:08:12;8.67;;;2.97;;
5219;SDS011;2629;50.768;7.308;2022-09-30T18:10:41;7.83;;;3.80;;
5219;SDS011;2629;50.768;7.308;2022-09-30T18:13:09;5.87;;;3.27;;
5219;SDS011;2629;50.768;7.308;2022-09-30T18:15:38;7.38;;;2.80;;
5219;SDS011;2629;50.768;7.308;2022-09-30T18:18:06;5.87;;;3.30;;
5219;SDS011;2629;50.768;7.308;2022-09-30T18:20:35;6.60;;;3.03;;
5219;SDS011;2629;50.768;7.308;2022-09-30T18:23:03;4.88;;;2.30;;
5219;SDS011;2629;50.768;7.308;2022-09-30T18:25:33;4.85;;;2.40;;
5219;SDS011;2629;50.768;7.308;2022-09-30T18:28:04;6.97;;;3.00;;
5219;SDS011;2629;50.768;7.308;2022-09-30T18:30:34;5.60;;;3.00;;
5219;SDS011;2629;50.768;7.308;2022-09-30T18:33:03;5.78;;;2.60;;
5219;SDS011;2629;50.768;7.308;2022-09-30T18:35:33;5.68;;;2.40;;
5219;SDS011;2629;50.768;7.308;2022-09-30T18:38:02;4.25;;;1.88;;
5219;SDS011;2629;50.768;7.308;2022-09-30T18:40:34;5.88;;;1.95;;
5219;SDS011;2629;50.768;7.308;2022-09-30T18:43:03;7.53;;;1.90;;
5219;SDS011;2629;50.768;7.308;2022-09-30T18:45:32;5.00;;;2.00;;
5219;SDS011;2629;50.768;7.308;2022-09-30T18:48:03;3.47;;;1.90;;
5219;SDS011;2629;50.768;7.308;2022-09-30T18:50:32;6.88;;;2.80;;
5219;SDS011;2629;50.768;7.308;2022-09-30T18:53:01;5.10;;;2.60;;
5219;SDS011;2629;50.768;7.308;2022-09-30T18:55:37;5.60;;;3.00;;
5219;SDS011;2629;50.768;7.308;2022-09-30T18:58:09;5.63;;;2.58;;
5219;SDS011;2629;50.768;7.308;2022-09-30T19:00:37;5.60;;;2.57;;
5219;SDS011;2629;50.768;7.308;2022-09-30T19:03:06;4.43;;;2.67;;
5219;SDS011;2629;50.768;7.308;2022-09-30T19:05:39;6.07;;;2.70;;